Time;durP1;ratioP1;P1;durP2;ratioP2;P2;SDS_P1;SDS_P2;PMS_P1;PMS_P2;Temp;Humidity;BMP_temperature;BMP_pressure;BME280_temperature;BME280_humidity;BME280_pressure;Samples;Min_cycle;Max_cycle;Signal;HPM_P1;HPM_P2
2022/09/27 00:01:16;;;;;;;0.30;0.30;;;12.00;99.90;;;;;;5031228;28;20060;-72
2022/09/27 00:03:43;;;;;;;0.20;0.20;;;12.00;99.90;;;;;;5015088;28;20056;-72
2022/09/27 00:06:14;;;;;;;0.10;0.10;;;12.00;99.90;;;;;;5033211;28;20090;-73
2022/09/27 00:08:40;;;;;;;0.13;0.13;;;12.10;99.90;;;;;;5035326;28;20021;-72
2022/09/27 00:11:14;;;;;;;0.10;0.10;;;11.90;99.90;;;;;;5033919;28;20071;-73
2022/09/27 00:13:39;;;;;;;0.20;0.20;;;11.90;99.90;;;;;;5033935;28;20026;-73
2022/09/27 00:16:05;;;;;;;0.10;0.10;;;11.90;99.90;;;;;;5033452;28;20156;-73
2022/09/27 00:18:32;;;;;;;0.10;0.10;;;12.00;99.90;;;;;;5033770;28;20029;-73
2022/09/27 00:21:10;;;;;;;0.10;0.10;;;12.10;99.90;;;;;;5034985;28;20025;-73
2022/09/27 00:23:36;;;;;;;0.10;0.10;;;12.30;99.90;;;;;;5034591;28;20389;-73
2022/09/27 00:26:03;;;;;;;0.20;0.20;;;12.30;99.90;;;;;;5033577;28;20113;-71
2022/09/27 00:28:31;;;;;;;0.20;0.20;;;12.10;99.90;;;;;;5033747;28;20380;-73
2022/09/27 00:30:58;;;;;;;0.10;0.10;;;12.10;99.90;;;;;;5034674;28;20025;-72
2022/09/27 00:33:24;;;;;;;0.20;0.20;;;12.10;99.90;;;;;;5016960;28;20025;-73
2022/09/27 00:35:50;;;;;;;0.10;0.10;;;12.10;99.90;;;;;;5034945;28;20021;-73
2022/09/27 00:38:16;;;;;;;0.10;0.10;;;12.20;99.90;;;;;;5017054;28;20026;-73
2022/09/27 00:40:42;;;;;;;0.10;0.10;;;12.20;99.90;;;;;;5034672;28;20362;-73
2022/09/27 00:43:21;;;;;;;0.20;0.20;;;12.20;99.90;;;;;;5034617;28;20057;-73
2022/09/27 00:46:00;;;;;;;0.20;0.20;;;12.10;99.90;;;;;;5033204;28;20026;-72
2022/09/27 00:48:30;;;;;;;0.13;0.13;;;12.30;99.90;;;;;;5034623;28;20038;-72
2022/09/27 00:51:00;;;;;;;0.20;0.20;;;12.40;99.90;;;;;;5034786;28;20021;-72
2022/09/27 00:53:29;;;;;;;0.20;0.20;;;12.50;99.90;;;;;;5033076;28;20068;-73
2022/09/27 00:55:58;;;;;;;0.20;0.20;;;12.50;99.90;;;;;;5034286;28;20025;-73
2022/09/27 00:58:34;;;;;;;0.17;0.17;;;12.40;99.90;;;;;;5034398;28;20105;-73
2022/09/27 01:01:04;;;;;;;0.20;0.20;;;12.50;99.90;;;;;;5033011;28;20030;-73
2022/09/27 01:03:46;;;;;;;0.20;0.20;;;12.60;99.90;;;;;;5032861;28;20038;-72
2022/09/27 01:06:13;;;;;;;0.10;0.10;;;12.60;99.90;;;;;;5034375;28;20079;-72
2022/09/27 01:08:39;;;;;;;0.15;0.15;;;12.60;99.90;;;;;;5034130;28;20079;-73
2022/09/27 01:11:23;;;;;;;0.20;0.20;;;12.40;99.90;;;;;;5034059;28;20029;-73
2022/09/27 01:14:07;;;;;;;0.20;0.20;;;12.50;99.90;;;;;;5032877;28;20028;-72
2022/09/27 01:16:54;;;;;;;0.20;0.20;;;12.60;99.90;;;;;;5032902;28;20560;-72
2022/09/27 01:19:51;;;;;;;0.10;0.10;;;12.70;99.90;;;;;;5032896;28;20052;-72
2022/09/27 01:22:33;;;;;;;0.10;0.10;;;12.60;99.90;;;;;;5033854;28;20026;-73
2022/09/27 01:25:07;;;;;;;0.20;0.20;;;12.60;99.90;;;;;;5033706;28;20018;-73
2022/09/27 01:28:03;;;;;;;0.10;0.10;;;12.50;99.90;;;;;;5033859;28;20037;-73
2022/09/27 01:30:42;;;;;;;0.20;0.20;;;12.20;99.90;;;;;;5032571;28;20021;-73
2022/09/27 01:33:41;;;;;;;0.20;0.20;;;11.90;99.90;;;;;;5033807;28;20025;-73
2022/09/27 01:36:11;;;;;;;0.10;0.10;;;11.70;99.90;;;;;;5032220;28;20040;-72
2022/09/27 01:38:44;;;;;;;0.13;0.13;;;11.80;99.90;;;;;;5032368;28;20133;-72
2022/09/27 01:41:25;;;;;;;0.20;0.20;;;11.90;99.90;;;;;;5015850;28;20731;-73
2022/09/27 01:44:28;;;;;;;0.20;0.20;;;11.90;99.90;;;;;;5032225;28;20026;-73
2022/09/27 01:47:02;;;;;;;0.20;0.20;;;11.70;99.90;;;;;;4998803;28;20032;-73
2022/09/27 01:49:41;;;;;;;0.10;0.10;;;11.60;99.90;;;;;;5032141;28;20022;-72
2022/09/27 01:52:10;;;;;;;0.25;0.25;;;11.50;99.90;;;;;;5033393;28;20026;-73
2022/09/27 01:54:45;;;;;;;0.10;0.10;;;11.40;99.90;;;;;;5033320;28;20033;-73
2022/09/27 01:57:15;;;;;;;0.20;0.20;;;11.10;99.90;;;;;;5033259;28;20025;-72
2022/09/27 01:59:49;;;;;;;0.10;0.10;;;11.10;99.90;;;;;;5033164;28;20388;-73
2022/09/27 02:02:18;;;;;;;0.20;0.20;;;11.20;99.90;;;;;;5015300;28;20041;-72
2022/09/27 02:04:47;;;;;;;0.30;0.30;;;11.20;99.90;;;;;;5031584;28;20052;-73
2022/09/27 02:07:19;;;;;;;0.20;0.20;;;11.10;99.90;;;;;;5033065;28;20029;-73
2022/09/27 02:09:55;;;;;;;0.20;0.20;;;11.00;99.90;;;;;;5033080;28;20033;-72
2022/09/27 02:12:26;;;;;;;0.20;0.20;;;11.00;99.90;;;;;;5015226;28;20030;-72
2022/09/27 02:14:56;;;;;;;0.20;0.20;;;11.20;99.90;;;;;;5015035;28;20050;-72
2022/09/27 02:17:55;;;;;;;0.43;0.43;;;11.30;99.90;;;;;;5032959;28;20112;-73
2022/09/27 02:20:43;;;;;;;0.25;0.25;;;11.20;99.90;;;;;;5031611;28;20032;-73
2022/09/27 02:23:13;;;;;;;0.20;0.20;;;11.20;99.90;;;;;;5032610;28;20092;-72
2022/09/27 02:25:44;;;;;;;0.10;0.10;;;11.10;99.90;;;;;;5014796;28;20056;-72
2022/09/27 02:28:38;;;;;;;0.10;0.10;;;11.00;99.90;;;;;;5032643;28;20022;-73
2022/09/27 02:31:04;;;;;;;1.27;0.68;;;11.10;99.90;;;;;;5032696;28;20034;-73
2022/09/27 02:33:39;;;;;;;0.15;0.15;;;10.90;99.90;;;;;;5032524;28;20511;-72
2022/09/27 02:36:05;;;;;;;0.10;0.10;;;10.80;99.90;;;;;;5014650;28;20075;-73
2022/09/27 02:38:31;;;;;;;0.20;0.20;;;11.00;99.90;;;;;;5032620;28;20021;-73
2022/09/27 02:40:57;;;;;;;0.20;0.20;;;11.30;99.90;;;;;;5031214;28;20026;-73
2022/09/27 02:43:29;;;;;;;0.10;0.10;;;11.20;99.90;;;;;;5031006;28;20079;-73
2022/09/27 02:46:00;;;;;;;0.13;0.13;;;11.00;99.90;;;;;;5031024;28;20021;-73
2022/09/27 02:48:50;;;;;;;0.20;0.20;;;10.70;99.90;;;;;;5031225;28;20025;-73
2022/09/27 02:51:31;;;;;;;0.20;0.20;;;10.60;99.90;;;;;;5031072;28;20025;-73
2022/09/27 02:54:09;;;;;;;0.43;0.43;;;10.50;99.90;;;;;;5032317;28;20489;-71
2022/09/27 02:56:49;;;;;;;0.10;0.10;;;10.30;99.90;;;;;;5032143;28;20040;-73
2022/09/27 02:59:29;;;;;;;0.10;0.10;;;10.10;99.90;;;;;;5031062;28;20421;-71
2022/09/27 03:02:33;;;;;;;0.10;0.10;;;10.20;99.90;;;;;;5030778;28;20032;-73
2022/09/27 03:05:08;;;;;;;0.10;0.10;;;10.50;99.90;;;;;;4938369;28;20443;-73
2022/09/27 03:07:37;;;;;;;0.50;0.50;;;10.30;99.90;;;;;;5004934;28;20527;-72
2022/09/27 03:10:04;;;;;;;0.10;0.10;;;10.40;99.90;;;;;;5032147;28;20018;-73
2022/09/27 03:12:30;;;;;;;0.20;0.20;;;10.50;99.90;;;;;;5032023;28;20056;-73
2022/09/27 03:14:58;;;;;;;0.10;0.10;;;10.40;99.90;;;;;;5031686;28;20083;-72
2022/09/27 03:17:25;;;;;;;0.10;0.10;;;10.30;99.90;;;;;;5031985;28;20047;-73
2022/09/27 03:19:51;;;;;;;0.20;0.20;;;10.20;99.90;;;;;;5030736;28;20026;-73
2022/09/27 03:22:16;;;;;;;0.10;0.10;;;10.10;99.90;;;;;;5031860;28;20448;-73
2022/09/27 03:24:42;;;;;;;0.20;0.20;;;10.10;99.90;;;;;;5031460;28;20029;-73
2022/09/27 03:27:08;;;;;;;0.63;0.32;;;10.10;99.90;;;;;;5030103;28;20029;-72
2022/09/27 03:29:35;;;;;;;0.20;0.20;;;10.30;99.90;;;;;;5013811;28;20229;-73
2022/09/27 03:32:01;;;;;;;0.20;0.20;;;10.40;99.90;;;;;;5031213;28;20021;-72
2022/09/27 03:34:28;;;;;;;0.10;0.10;;;10.50;99.90;;;;;;5013792;28;20508;-74
2022/09/27 03:36:54;;;;;;;0.10;0.10;;;10.50;99.90;;;;;;5029936;28;20029;-74
2022/09/27 03:39:20;;;;;;;0.22;0.22;;;10.70;99.90;;;;;;5034011;28;20163;-74
2022/09/27 03:41:46;;;;;;;0.15;0.15;;;10.70;99.90;;;;;;5035457;28;20104;-74
2022/09/27 03:44:11;;;;;;;0.10;0.10;;;10.70;99.90;;;;;;5033818;28;20087;-74
2022/09/27 03:46:37;;;;;;;0.20;0.20;;;10.60;99.90;;;;;;5035306;28;20022;-74
2022/09/27 03:49:03;;;;;;;0.10;0.10;;;10.60;99.90;;;;;;5034383;28;20028;-74
2022/09/27 03:51:29;;;;;;;0.20;0.20;;;10.70;99.90;;;;;;5017827;28;20108;-74
2022/09/27 03:53:55;;;;;;;0.20;0.20;;;10.60;99.90;;;;;;5035380;28;20032;-73
2022/09/27 03:56:21;;;;;;;0.10;0.10;;;10.40;99.90;;;;;;5034102;28;20029;-74
2022/09/27 03:58:48;;;;;;;0.20;0.20;;;10.50;99.90;;;;;;5034257;28;20029;-74
2022/09/27 04:01:14;;;;;;;1.00;1.00;;;10.70;99.90;;;;;;5017856;28;20113;-74
2022/09/27 04:03:40;;;;;;;0.10;0.10;;;10.70;99.90;;;;;;5017531;28;20025;-74
2022/09/27 04:06:06;;;;;;;0.10;0.10;;;10.80;99.90;;;;;;5033859;28;20500;-74
2022/09/27 04:08:32;;;;;;;0.10;0.10;;;11.00;99.90;;;;;;5034137;28;20108;-74
2022/09/27 04:10:57;;;;;;;0.10;0.10;;;10.90;99.90;;;;;;5033942;28;20021;-74
2022/09/27 04:13:23;;;;;;;0.10;0.10;;;10.90;99.90;;;;;;5035091;28;20418;-74
2022/09/27 04:15:49;;;;;;;0.10;0.10;;;11.00;99.90;;;;;;5034911;28;20056;-73
2022/09/27 04:18:15;;;;;;;0.10;0.10;;;11.00;99.90;;;;;;5033842;28;20033;-73
2022/09/27 04:20:40;;;;;;;0.20;0.20;;;11.10;99.90;;;;;;5035119;28;20021;-73
2022/09/27 04:23:07;;;;;;;0.10;0.10;;;11.10;99.90;;;;;;5033740;28;20026;-74
2022/09/27 04:25:33;;;;;;;0.10;0.10;;;11.00;99.90;;;;;;5034684;28;20022;-74
2022/09/27 04:28:00;;;;;;;0.10;0.10;;;10.90;99.90;;;;;;5033657;28;20083;-73
2022/09/27 04:30:25;;;;;;;0.10;0.10;;;11.00;99.90;;;;;;5034990;28;20039;-73
2022/09/27 04:32:51;;;;;;;0.20;0.20;;;11.10;99.90;;;;;;5033533;28;20025;-73
2022/09/27 04:38:01;;;;;;;0.10;0.10;;;11.40;99.90;;;;;;5033356;28;20040;-74
2022/09/27 04:40:27;;;;;;;0.40;0.40;;;11.40;99.90;;;;;;5047937;28;20029;-73
2022/09/27 04:42:53;;;;;;;0.10;0.10;;;11.30;99.90;;;;;;5035580;28;20025;-72
2022/09/27 04:45:20;;;;;;;0.10;0.10;;;11.20;99.90;;;;;;5054329;28;20112;-74
2022/09/27 04:47:48;;;;;;;0.10;0.10;;;11.10;99.90;;;;;;5047422;28;20030;-73
2022/09/27 04:50:15;;;;;;;0.10;0.10;;;10.80;99.90;;;;;;5033161;28;20017;-73
2022/09/27 04:52:40;;;;;;;0.10;0.10;;;10.90;99.90;;;;;;5016720;28;20037;-74
2022/09/27 04:55:08;;;;;;;0.10;0.10;;;10.80;99.90;;;;;;5034153;28;20107;-74
2022/09/27 04:57:34;;;;;;;0.13;0.13;;;10.60;99.90;;;;;;5034440;28;20029;-73
2022/09/27 05:00:00;;;;;;;0.20;0.20;;;10.50;99.90;;;;;;5032886;28;20497;-73
2022/09/27 05:02:27;;;;;;;0.40;0.40;;;10.60;99.90;;;;;;5034128;28;20059;-74
2022/09/27 05:04:58;;;;;;;0.10;0.10;;;10.60;99.90;;;;;;5033618;28;20376;-74
2022/09/27 05:07:24;;;;;;;0.20;0.20;;;10.50;99.90;;;;;;5032752;28;20025;-74
2022/09/27 05:09:50;;;;;;;0.10;0.10;;;10.60;99.90;;;;;;5034062;28;20048;-74
2022/09/27 05:12:16;;;;;;;0.10;0.10;;;10.50;99.90;;;;;;5033866;28;20083;-74
2022/09/27 05:14:42;;;;;;;0.20;0.20;;;10.50;99.90;;;;;;5032542;28;20025;-74
2022/09/27 05:17:08;;;;;;;0.10;0.10;;;10.40;99.90;;;;;;5033599;28;20025;-74
2022/09/27 05:19:35;;;;;;;1.17;0.65;;;10.50;99.90;;;;;;5035458;28;20571;-73
2022/09/27 05:22:01;;;;;;;0.17;0.17;;;10.50;99.90;;;;;;5045773;28;20489;-73
2022/09/27 05:24:27;;;;;;;0.30;0.30;;;10.40;99.90;;;;;;5043604;28;20025;-74
2022/09/27 05:26:53;;;;;;;0.30;0.30;;;10.30;99.90;;;;;;5046547;28;20017;-74
2022/09/27 05:29:19;;;;;;;0.10;0.10;;;10.10;99.90;;;;;;5051730;28;20027;-73
2022/09/27 05:31:46;;;;;;;0.20;0.20;;;10.20;99.90;;;;;;5050085;28;20504;-74
2022/09/27 05:34:12;;;;;;;0.75;0.50;;;10.20;99.90;;;;;;5032213;28;20025;-74
2022/09/27 05:36:38;;;;;;;0.10;0.10;;;10.30;99.90;;;;;;5032156;28;20350;-74
2022/09/27 05:39:04;;;;;;;0.57;0.57;;;10.10;99.90;;;;;;5033419;28;20103;-74
2022/09/27 05:41:31;;;;;;;0.20;0.20;;;9.90;99.90;;;;;;5031274;28;20493;-74
2022/09/27 05:43:58;;;;;;;0.43;0.35;;;9.90;99.90;;;;;;5033227;28;20496;-73
2022/09/27 05:46:23;;;;;;;0.10;0.10;;;9.80;99.90;;;;;;5033219;28;20485;-74
2022/09/27 05:48:49;;;;;;;0.30;0.30;;;9.90;99.90;;;;;;5032439;28;20043;-74
2022/09/27 05:51:15;;;;;;;0.40;0.30;;;9.80;99.90;;;;;;5032603;28;20044;-74
2022/09/27 05:53:41;;;;;;;0.10;0.10;;;9.80;99.90;;;;;;5015320;28;20032;-73
2022/09/27 05:56:07;;;;;;;0.70;0.57;;;9.90;99.90;;;;;;5031564;28;20116;-72
2022/09/27 05:58:33;;;;;;;0.20;0.20;;;9.90;99.90;;;;;;5033205;28;20049;-74
2022/09/27 06:00:59;;;;;;;0.20;0.20;;;10.00;99.90;;;;;;5032576;28;20028;-73
2022/09/27 06:03:25;;;;;;;0.47;0.47;;;10.00;99.90;;;;;;5014947;28;20041;-74
2022/09/27 06:08:20;;;;;;;0.10;0.10;;;10.00;99.90;;;;;;5050862;28;20575;-75
2022/09/27 06:10:46;;;;;;;0.20;0.20;;;10.10;99.90;;;;;;5052968;28;20096;-75
2022/09/27 06:13:15;;;;;;;0.30;0.30;;;10.20;99.90;;;;;;5052652;28;20074;-75
2022/09/27 06:15:43;;;;;;;0.10;0.10;;;10.20;99.90;;;;;;5034794;28;20407;-75
2022/09/27 06:18:12;;;;;;;0.10;0.10;;;10.20;99.90;;;;;;5051030;28;20280;-76
2022/09/27 06:20:40;;;;;;;0.10;0.10;;;10.10;99.90;;;;;;5051438;28;20025;-75
2022/09/27 06:23:14;;;;;;;0.25;0.25;;;10.10;99.90;;;;;;5054805;28;20035;-75
2022/09/27 06:25:41;;;;;;;0.20;0.20;;;10.20;99.90;;;;;;5046864;28;20048;-75
2022/09/27 06:28:08;;;;;;;0.10;0.10;;;10.10;99.90;;;;;;5037206;28;20400;-75
2022/09/27 06:30:38;;;;;;;0.55;0.40;;;10.10;99.90;;;;;;5039965;28;20095;-75
2022/09/27 06:33:04;;;;;;;0.30;0.30;;;10.00;99.90;;;;;;5032443;28;20029;-75
2022/09/27 06:35:30;;;;;;;0.20;0.20;;;9.90;99.90;;;;;;5047177;28;20025;-75
2022/09/27 06:37:56;;;;;;;0.10;0.10;;;9.90;99.90;;;;;;5051970;28;20032;-75
2022/09/27 06:40:25;;;;;;;2.30;0.68;;;9.90;99.90;;;;;;5039435;28;20056;-75
2022/09/27 06:42:50;;;;;;;0.40;0.40;;;9.90;99.90;;;;;;5014597;28;20026;-75
2022/09/27 06:45:16;;;;;;;0.38;0.38;;;10.00;99.90;;;;;;5030926;28;20480;-75
2022/09/27 06:47:42;;;;;;;0.10;0.10;;;9.90;99.90;;;;;;5032170;28;20029;-75
2022/09/27 06:50:08;;;;;;;0.43;0.43;;;9.90;99.90;;;;;;5014527;28;20504;-75
2022/09/27 06:52:35;;;;;;;0.10;0.10;;;9.90;99.90;;;;;;5032173;28;20033;-75
2022/09/27 06:55:03;;;;;;;0.20;0.20;;;10.00;99.90;;;;;;5031986;28;20029;-75
2022/09/27 07:00:32;;;;;;;0.22;0.22;;;10.00;99.90;;;;;;5050655;28;20051;-75
2022/09/27 07:03:01;;;;;;;0.25;0.25;;;10.10;99.90;;;;;;5051268;28;20021;-77
2022/09/27 07:05:28;;;;;;;0.20;0.20;;;10.00;99.90;;;;;;5050505;28;20431;-77
2022/09/27 07:07:56;;;;;;;0.20;0.20;;;9.90;99.90;;;;;;5050652;28;20045;-77
2022/09/27 07:10:24;;;;;;;2.55;0.73;;;9.90;99.90;;;;;;5052114;28;20377;-77
2022/09/27 07:12:51;;;;;;;0.20;0.20;;;9.80;99.90;;;;;;5051063;28;20087;-77
2022/09/27 07:15:19;;;;;;;0.45;0.45;;;9.80;99.90;;;;;;5051890;28;20033;-77
2022/09/27 07:17:45;;;;;;;0.10;0.10;;;9.90;99.90;;;;;;5052067;28;20021;-76
2022/09/27 07:20:11;;;;;;;0.20;0.20;;;10.20;99.90;;;;;;5051988;28;20021;-77
2022/09/27 07:22:44;;;;;;;0.35;0.28;;;10.00;99.90;;;;;;5051676;28;20494;-77
2022/09/27 07:25:11;;;;;;;0.20;0.20;;;9.90;99.90;;;;;;5050319;28;20109;-77
2022/09/27 07:27:40;;;;;;;0.15;0.15;;;9.90;99.90;;;;;;5059257;28;20555;-77
2022/09/27 07:30:06;;;;;;;0.20;0.20;;;9.90;99.90;;;;;;5071856;28;20021;-77
2022/09/27 07:32:34;;;;;;;0.30;0.20;;;10.00;99.90;;;;;;5051986;28;20481;-77
2022/09/27 07:35:00;;;;;;;0.20;0.20;;;10.00;99.90;;;;;;5033736;28;20021;-77
2022/09/27 07:37:26;;;;;;;0.10;0.10;;;10.00;99.90;;;;;;5050416;28;20400;-77
2022/09/27 07:39:51;;;;;;;0.20;0.20;;;9.90;99.90;;;;;;5050212;28;20029;-76
2022/09/27 07:42:17;;;;;;;0.98;0.90;;;10.00;99.90;;;;;;5051437;28;20037;-77
2022/09/27 07:44:44;;;;;;;0.20;0.20;;;9.80;99.90;;;;;;5050479;28;20031;-76
2022/09/27 07:47:09;;;;;;;0.10;0.10;;;9.80;99.90;;;;;;5050476;28;20028;-77
2022/09/27 07:49:35;;;;;;;0.25;0.25;;;9.70;99.90;;;;;;5051793;28;20104;-76
2022/09/27 07:52:01;;;;;;;0.28;0.28;;;9.90;99.90;;;;;;5051512;28;20143;-77
2022/09/27 07:54:28;;;;;;;0.10;0.10;;;10.10;99.90;;;;;;5051101;28;20025;-77
2022/09/27 07:56:54;;;;;;;0.10;0.10;;;10.10;99.90;;;;;;5050081;28;20083;-77
2022/09/27 07:59:20;;;;;;;0.10;0.10;;;10.30;99.90;;;;;;5051525;28;20017;-77
2022/09/27 08:01:46;;;;;;;0.10;0.10;;;10.30;99.90;;;;;;5050200;28;20047;-76
2022/09/27 08:04:11;;;;;;;1.20;1.15;;;10.20;99.90;;;;;;5051463;28;20100;-76
2022/09/27 08:06:37;;;;;;;0.50;0.50;;;10.00;99.90;;;;;;5049756;28;20029;-77
2022/09/27 08:09:08;;;;;;;0.20;0.20;;;9.90;99.90;;;;;;5050057;28;20024;-76
2022/09/27 08:11:36;;;;;;;0.30;0.30;;;9.80;99.90;;;;;;5033638;28;20468;-76
2022/09/27 08:14:03;;;;;;;0.10;0.10;;;9.90;99.90;;;;;;5034077;28;20021;-77
2022/09/27 08:16:31;;;;;;;0.32;0.32;;;10.10;99.90;;;;;;5050257;28;20092;-77
2022/09/27 08:18:57;;;;;;;0.20;0.20;;;10.10;99.90;;;;;;5051390;28;20104;-77
2022/09/27 08:21:23;;;;;;;0.28;0.28;;;10.30;99.90;;;;;;5051354;28;20052;-77
2022/09/27 08:23:49;;;;;;;0.28;0.28;;;10.20;99.90;;;;;;5051035;28;20025;-77
2022/09/27 08:26:14;;;;;;;0.10;0.10;;;10.20;99.90;;;;;;5054565;28;20025;-77
2022/09/27 08:28:40;;;;;;;0.75;0.50;;;10.30;99.90;;;;;;5054941;28;20071;-77
2022/09/27 08:31:06;;;;;;;0.28;0.28;;;10.30;99.90;;;;;;5046949;28;20028;-77
2022/09/27 08:33:31;;;;;;;0.10;0.10;;;10.50;99.90;;;;;;5033863;28;20017;-77
2022/09/27 08:35:57;;;;;;;0.10;0.10;;;10.70;99.90;;;;;;5035034;28;20507;-77
2022/09/27 08:38:23;;;;;;;0.20;0.20;;;10.80;99.90;;;;;;5033709;28;20037;-77
2022/09/27 08:40:57;;;;;;;3.75;0.20;;;11.00;99.90;;;;;;5017295;28;20038;-76
2022/09/27 08:43:40;;;;;;;0.22;0.22;;;11.20;99.90;;;;;;5033443;28;20026;-76
2022/09/27 08:47:02;;;;;;;0.30;0.30;;;11.20;99.90;;;;;;5034793;28;20490;-75
2022/09/27 08:49:54;;;;;;;0.30;0.30;;;11.10;99.90;;;;;;4954134;28;20027;-75
2022/09/27 08:52:30;;;;;;;0.30;0.30;;;10.80;99.90;;;;;;4954326;29;20093;-75
2022/09/27 08:54:59;;;;;;;0.20;0.20;;;10.80;99.90;;;;;;5010848;28;20117;-75
2022/09/27 08:57:25;;;;;;;0.40;0.40;;;10.60;99.90;;;;;;5034265;28;20424;-75
2022/09/27 09:00:10;;;;;;;0.20;0.20;;;10.60;99.90;;;;;;5034487;28;20031;-75
2022/09/27 09:02:36;;;;;;;2.10;1.15;;;10.70;99.90;;;;;;5034001;28;20029;-75
2022/09/27 09:05:28;;;;;;;1.13;0.40;;;11.10;99.90;;;;;;5034083;28;20409;-75
2022/09/27 09:08:15;;;;;;;0.15;0.15;;;11.10;99.90;;;;;;5034444;28;20037;-75
2022/09/27 09:13:38;;;;;;;0.20;0.20;;;10.10;99.90;;;;;;5033895;28;20385;-75
2022/09/27 09:16:27;;;;;;;0.30;0.30;;;10.10;99.90;;;;;;5033841;28;20053;-75
2022/09/27 09:19:37;;;;;;;0.20;0.20;;;10.20;99.90;;;;;;5034018;28;20033;-75
2022/09/27 09:22:37;;;;;;;0.15;0.15;;;10.70;99.90;;;;;;5033724;28;20033;-75
2022/09/27 09:25:25;;;;;;;0.20;0.20;;;11.30;99.90;;;;;;5033682;28;20029;-75
2022/09/27 09:28:26;;;;;;;0.65;0.65;;;11.10;99.90;;;;;;5032475;28;20503;-75
2022/09/27 09:30:55;;;;;;;0.20;0.20;;;10.70;99.90;;;;;;5026679;28;20443;-75
2022/09/27 09:33:35;;;;;;;0.20;0.20;;;10.50;99.90;;;;;;5052197;28;20310;-75
2022/09/27 09:36:10;;;;;;;0.10;0.10;;;10.60;99.90;;;;;;5051044;28;20060;-73
2022/09/27 09:38:48;;;;;;;0.20;0.20;;;10.70;99.90;;;;;;5052111;28;20025;-73
2022/09/27 09:41:37;;;;;;;0.10;0.10;;;11.30;99.90;;;;;;5053085;28;20040;-73
2022/09/27 09:44:22;;;;;;;0.20;0.20;;;12.30;99.90;;;;;;5053481;28;20115;-73
2022/09/27 09:46:52;;;;;;;0.10;0.10;;;12.90;99.90;;;;;;5053348;28;20540;-73
2022/09/27 09:49:42;;;;;;;1.35;0.95;;;12.80;99.90;;;;;;5053262;28;20063;-75
2022/09/27 09:52:16;;;;;;;0.30;0.28;;;13.20;99.90;;;;;;5053475;28;20021;-73
2022/09/27 09:54:59;;;;;;;0.38;0.38;;;13.00;99.90;;;;;;5053568;28;20480;-73
2022/09/27 09:57:37;;;;;;;;;;;12.80;99.90;;;;;;5053344;28;20028;-73
2022/09/27 10:00:13;;;;;;;0.10;0.10;;;12.60;99.90;;;;;;5052874;28;19912;-73
2022/09/27 10:02:42;;;;;;;0.20;0.20;;;12.50;99.90;;;;;;5053141;28;20029;-76
2022/09/27 10:05:14;;;;;;;0.20;0.20;;;11.90;99.90;;;;;;5053075;28;20108;-75
2022/09/27 10:07:40;;;;;;;0.52;0.52;;;11.70;99.90;;;;;;5039265;28;20095;-75
2022/09/27 10:10:09;;;;;;;0.35;0.30;;;11.80;99.90;;;;;;5048927;28;20024;-75
2022/09/27 10:12:36;;;;;;;15.63;1.05;;;11.40;99.90;;;;;;5031691;28;20030;-75
2022/09/27 10:15:04;;;;;;;0.30;0.30;;;11.20;99.90;;;;;;5057395;28;20079;-75
2022/09/27 10:17:38;;;;;;;1.55;0.32;;;11.00;99.90;;;;;;5052811;28;20021;-75
2022/09/27 10:20:06;;;;;;;0.10;0.10;;;10.60;99.90;;;;;;5052682;28;20025;-75
2022/09/27 10:22:36;;;;;;;0.20;0.20;;;10.00;99.90;;;;;;5052297;28;20028;-75
2022/09/27 10:25:08;;;;;;;0.30;0.30;;;9.80;99.90;;;;;;5031750;28;20026;-75
2022/09/27 10:27:46;;;;;;;0.30;0.30;;;9.70;99.90;;;;;;5031243;28;20061;-75
2022/09/27 10:30:31;;;;;;;0.20;0.20;;;9.80;99.90;;;;;;5032522;28;20064;-75
2022/09/27 10:33:16;;;;;;;2.92;0.35;;;10.00;99.90;;;;;;5032222;28;20041;-76
2022/09/27 10:35:44;;;;;;;0.30;0.30;;;9.90;99.90;;;;;;5032412;28;20056;-75
2022/09/27 10:38:36;;;;;;;0.32;0.32;;;10.20;99.90;;;;;;5032485;28;20041;-75
2022/09/27 10:41:22;;;;;;;0.20;0.20;;;9.90;99.90;;;;;;5039047;28;20045;-75
2022/09/27 10:43:47;;;;;;;0.20;0.20;;;10.10;99.90;;;;;;5050755;28;20075;-75
2022/09/27 10:46:34;;;;;;;0.28;0.28;;;10.20;99.90;;;;;;5050284;28;20025;-75
2022/09/27 10:49:37;;;;;;;0.20;0.20;;;10.40;99.90;;;;;;5048367;28;20036;-75
2022/09/27 10:52:14;;;;;;;0.10;0.10;;;10.40;99.90;;;;;;4953377;28;20081;-75
2022/09/27 10:54:41;;;;;;;0.20;0.20;;;10.50;99.90;;;;;;5042654;28;20107;-75
2022/09/27 10:57:13;;;;;;;0.20;0.20;;;10.40;99.90;;;;;;5050842;28;20021;-75
2022/09/27 10:59:42;;;;;;;0.22;0.22;;;10.00;99.90;;;;;;5050688;28;20051;-75
2022/09/27 11:02:33;;;;;;;0.20;0.20;;;9.80;99.90;;;;;;5050249;28;20037;-75
2022/09/27 11:05:14;;;;;;;0.40;0.40;;;9.70;99.90;;;;;;5050374;28;20021;-75
2022/09/27 11:07:54;;;;;;;0.20;0.20;;;9.90;99.90;;;;;;5050561;28;20033;-75
2022/09/27 11:10:31;;;;;;;0.10;0.10;;;9.90;99.90;;;;;;5052393;28;20536;-74
2022/09/27 11:13:15;;;;;;;0.20;0.20;;;10.00;99.90;;;;;;5052643;28;20488;-72
2022/09/27 11:15:59;;;;;;;0.52;0.45;;;10.00;99.90;;;;;;5034486;28;20033;-72
2022/09/27 11:18:46;;;;;;;0.15;0.15;;;10.00;99.90;;;;;;5034150;28;20056;-73
2022/09/27 11:21:34;;;;;;;0.10;0.10;;;10.20;99.90;;;;;;5032877;28;20053;-73
2022/09/27 11:24:11;;;;;;;0.38;0.38;;;10.10;99.90;;;;;;5019356;28;20128;-73
2022/09/27 11:26:53;;;;;;;0.40;0.40;;;10.10;99.90;;;;;;5034099;28;20381;-73
2022/09/27 11:29:19;;;;;;;;;;;10.20;99.90;;;;;;5034469;28;20057;-72
2022/09/27 11:32:06;;;;;;;0.20;0.20;;;10.70;99.90;;;;;;5034840;28;19963;-73
2022/09/27 11:35:02;;;;;;;0.20;0.20;;;12.00;99.90;;;;;;5033457;28;20388;-73
2022/09/27 11:37:46;;;;;;;0.30;0.30;;;12.70;99.90;;;;;;5049680;28;20095;-73
2022/09/27 11:40:24;;;;;;;0.15;0.15;;;12.20;99.90;;;;;;5059536;28;20025;-73
2022/09/27 11:43:06;;;;;;;0.20;0.20;;;12.90;99.90;;;;;;5055986;28;20028;-73
2022/09/27 11:45:44;;;;;;;0.20;0.20;;;13.10;99.90;;;;;;5066189;28;20451;-73
2022/09/27 11:48:29;;;;;;;1.55;0.55;;;13.50;99.90;;;;;;5036322;28;20075;-72
2022/09/27 11:51:12;;;;;;;0.15;0.15;;;13.90;99.90;;;;;;5029452;28;20431;-73
2022/09/27 11:53:46;;;;;;;0.20;0.20;;;14.20;99.90;;;;;;5052562;28;20021;-73
2022/09/27 11:56:23;;;;;;;0.20;0.20;;;15.00;99.90;;;;;;5034141;28;20047;-73
2022/09/27 11:59:09;;;;;;;0.20;0.20;;;15.20;99.90;;;;;;5042328;28;20040;-73
2022/09/27 12:01:45;;;;;;;0.45;0.22;;;14.80;99.90;;;;;;5067289;28;20031;-73
2022/09/27 12:04:44;;;;;;;0.30;0.30;;;15.10;99.90;;;;;;5078300;28;20028;-73
2022/09/27 12:07:24;;;;;;;0.20;0.20;;;14.80;99.90;;;;;;5078036;28;20442;-73
2022/09/27 12:09:55;;;;;;;0.13;0.13;;;14.90;99.90;;;;;;5077689;28;20028;-73
2022/09/27 12:12:25;;;;;;;0.90;0.30;;;14.70;99.90;;;;;;5077630;28;20017;-73
2022/09/27 12:15:04;;;;;;;2.67;0.55;;;14.70;99.90;;;;;;5077080;28;20398;-74
2022/09/27 12:17:34;;;;;;;1.08;0.55;;;14.70;99.90;;;;;;5077743;28;20020;-73
2022/09/27 12:20:09;;;;;;;0.10;0.10;;;15.20;98.90;;;;;;5136644;22;20185;-73
2022/09/27 12:23:04;;;;;;;0.40;0.40;;;15.50;99.90;;;;;;5074717;28;20047;-74
2022/09/27 12:25:38;;;;;;;1.65;0.52;;;15.60;99.30;;;;;;5052101;28;20037;-75
2022/09/27 12:28:21;;;;;;;0.10;0.10;;;15.20;97.80;;;;;;5054798;28;20029;-74
2022/09/27 12:30:49;;;;;;;;;;;15.00;98.90;;;;;;5017674;28;20076;-74
2022/09/27 12:33:31;;;;;;;0.98;0.52;;;15.10;98.20;;;;;;5029407;28;20436;-74
2022/09/27 12:36:01;;;;;;;0.15;0.15;;;14.70;97.00;;;;;;5013133;28;20416;-74
2022/09/27 12:38:41;;;;;;;0.57;0.30;;;14.60;96.20;;;;;;5013208;28;20034;-74
2022/09/27 12:41:12;;;;;;;8.35;0.30;;;14.20;96.30;;;;;;5018108;28;20358;-73
2022/09/27 12:43:42;;;;;;;0.30;0.22;;;14.10;97.10;;;;;;5028459;28;20022;-74
2022/09/27 12:46:48;;;;;;;0.40;0.40;;;14.10;97.30;;;;;;5032639;28;20477;-74
2022/09/27 12:49:24;;;;;;;1.65;0.43;;;14.10;97.60;;;;;;5049258;28;20014;-74
2022/09/27 12:51:58;;;;;;;0.50;0.50;;;13.50;98.10;;;;;;5032906;28;20017;-74
2022/09/27 12:54:32;;;;;;;0.90;0.40;;;12.90;97.80;;;;;;5034179;28;20022;-74
2022/09/27 12:57:35;;;;;;;0.47;0.45;;;12.50;99.90;;;;;;5032208;28;20032;-74
2022/09/27 13:00:11;;;;;;;0.50;0.50;;;12.30;99.90;;;;;;5033726;28;20354;-74
2022/09/27 13:02:56;;;;;;;1.02;0.73;;;12.20;99.90;;;;;;5032518;28;20097;-74
2022/09/27 13:05:43;;;;;;;0.40;0.40;;;12.00;99.90;;;;;;5015311;28;20036;-74
2022/09/27 13:08:24;;;;;;;0.20;0.20;;;11.70;99.90;;;;;;5033845;28;20029;-74
2022/09/27 13:11:14;;;;;;;0.55;0.50;;;11.70;99.90;;;;;;5032721;28;20084;-74
2022/09/27 13:13:40;;;;;;;0.20;0.20;;;11.80;99.90;;;;;;5033604;28;20052;-74
2022/09/27 13:16:07;;;;;;;2.20;0.47;;;11.70;99.90;;;;;;5015398;28;20032;-74
2022/09/27 13:18:53;;;;;;;1.17;0.85;;;11.80;99.90;;;;;;5015472;28;20032;-74
2022/09/27 13:21:50;;;;;;;0.55;0.30;;;11.60;99.90;;;;;;5033462;28;20032;-74
2022/09/27 13:24:37;;;;;;;0.40;0.40;;;11.70;99.90;;;;;;5033399;28;20485;-74
2022/09/27 13:27:29;;;;;;;1.67;0.55;;;11.50;99.90;;;;;;5018872;28;20033;-74
2022/09/27 13:30:15;;;;;;;1.30;0.25;;;11.70;99.90;;;;;;5033072;28;20481;-73